Time;durP1;ratioP1;P1;durP2;ratioP2;P2;SDS_P1;SDS_P2;PMS_P1;PMS_P2;Temp;Humidity;BMP_temperature;BMP_pressure;BME280_temperature;BME280_humidity;BME280_pressure;Samples;Min_cycle;Max_cycle;Signal;HPM_P1;HPM_P2
2022/08/31 00:04:39;;;;;;;13.83;10.43;;;22.50;91.80;;;;;;5115068;27;20623;-67
2022/08/31 00:07:06;;;;;;;13.00;10.47;;;22.50;91.80;;;;;;5100465;28;20211;-66
2022/08/31 00:09:33;;;;;;;12.13;10.93;;;22.50;91.80;;;;;;5114892;27;20208;-67
2022/08/31 00:12:01;;;;;;;13.50;11.27;;;22.50;91.80;;;;;;5113791;27;20726;-66
2022/08/31 00:14:28;;;;;;;13.10;11.23;;;22.50;91.80;;;;;;5096227;28;20219;-67
2022/08/31 00:16:56;;;;;;;16.73;12.90;;;22.50;91.80;;;;;;5086520;28;20211;-66
2022/08/31 00:19:23;;;;;;;13.67;11.60;;;22.50;91.70;;;;;;5112562;28;20238;-66
2022/08/31 00:21:50;;;;;;;13.83;12.33;;;22.50;91.70;;;;;;5098677;28;20217;-67
2022/08/31 00:24:17;;;;;;;13.13;11.80;;;22.40;91.80;;;;;;5119292;28;20204;-66
2022/08/31 00:26:44;;;;;;;17.60;13.63;;;22.40;91.90;;;;;;5105914;28;20199;-67
2022/08/31 00:29:12;;;;;;;13.43;11.63;;;22.40;92.00;;;;;;5100384;28;20290;-67
2022/08/31 00:31:40;;;;;;;16.10;13.03;;;22.40;92.10;;;;;;5103800;28;20201;-66
2022/08/31 00:34:07;;;;;;;17.97;13.20;;;22.40;92.20;;;;;;5112514;28;20200;-67
2022/08/31 00:36:35;;;;;;;16.70;12.37;;;22.40;92.20;;;;;;5085420;28;20204;-66
2022/08/31 00:39:05;;;;;;;14.63;13.13;;;22.30;92.30;;;;;;5113062;28;20201;-66
2022/08/31 00:41:36;;;;;;;19.97;14.33;;;22.30;92.30;;;;;;5103634;28;20208;-66
2022/08/31 00:44:07;;;;;;;15.30;12.93;;;22.30;92.40;;;;;;5107337;28;20581;-67
2022/08/31 00:46:41;;;;;;;16.20;14.17;;;22.30;92.30;;;;;;5097856;28;20239;-66
2022/08/31 00:49:30;;;;;;;16.53;14.17;;;22.30;92.30;;;;;;5116842;28;20266;-67
2022/08/31 00:52:08;;;;;;;15.83;13.97;;;22.30;92.30;;;;;;5118086;27;20201;-67
2022/08/31 00:54:47;;;;;;;16.03;14.33;;;22.30;92.30;;;;;;5107581;27;20650;-66
2022/08/31 00:57:15;;;;;;;16.20;13.03;;;22.30;92.40;;;;;;5084837;27;20615;-67
2022/08/31 00:59:48;;;;;;;16.43;14.80;;;22.30;92.50;;;;;;5112436;27;20219;-66
2022/08/31 01:02:16;;;;;;;16.73;15.03;;;22.30;92.50;;;;;;5112296;27;20261;-66
2022/08/31 01:04:43;;;;;;;16.90;15.07;;;22.30;92.50;;;;;;5098924;27;20246;-67
2022/08/31 01:07:11;;;;;;;18.03;15.93;;;22.30;92.60;;;;;;5123659;27;20207;-66
2022/08/31 01:09:41;;;;;;;17.20;15.60;;;22.30;92.60;;;;;;5102263;27;20218;-66
2022/08/31 01:12:22;;;;;;;18.80;16.40;;;22.30;92.70;;;;;;5108434;27;20252;-66
2022/08/31 01:14:50;;;;;;;16.50;14.90;;;22.30;92.60;;;;;;5105827;27;20196;-66
2022/08/31 01:17:18;;;;;;;17.27;15.57;;;22.30;92.60;;;;;;5117972;27;20203;-66
2022/08/31 01:20:00;;;;;;;18.67;16.67;;;22.30;92.60;;;;;;5101641;28;20297;-66
2022/08/31 01:22:51;;;;;;;17.13;15.43;;;22.30;92.50;;;;;;5123385;27;20280;-66
2022/08/31 01:25:18;;;;;;;17.57;15.77;;;22.30;92.50;;;;;;5082050;28;20212;-66
2022/08/31 01:27:46;;;;;;;18.67;16.67;;;22.30;92.50;;;;;;5095765;27;20208;-66
2022/08/31 01:30:22;;;;;;;18.00;16.03;;;22.20;92.50;;;;;;5115768;27;20196;-66
2022/08/31 01:32:49;;;;;;;19.97;17.00;;;22.20;92.50;;;;;;5107178;28;20525;-66
2022/08/31 01:35:18;;;;;;;18.30;16.40;;;22.20;92.40;;;;;;5107346;28;20499;-66
2022/08/31 01:37:45;;;;;;;19.17;15.80;;;22.20;92.40;;;;;;5104331;27;20204;-66
2022/08/31 01:40:14;;;;;;;18.60;15.70;;;22.20;92.40;;;;;;5106230;27;20263;-66
2022/08/31 01:42:42;;;;;;;20.13;17.40;;;22.20;92.50;;;;;;5098001;27;20199;-66
2022/08/31 01:45:10;;;;;;;18.97;17.00;;;22.20;92.60;;;;;;5097006;28;20204;-66
2022/08/31 01:47:39;;;;;;;20.17;17.20;;;22.20;92.70;;;;;;5121684;27;20204;-66
2022/08/31 01:50:07;;;;;;;19.50;17.60;;;22.20;92.80;;;;;;5104616;27;20212;-66
2022/08/31 01:52:36;;;;;;;20.43;18.33;;;22.20;92.80;;;;;;5096252;27;20208;-66
2022/08/31 01:55:06;;;;;;;19.53;17.63;;;22.20;92.80;;;;;;5104861;27;20207;-66
2022/08/31 01:57:33;;;;;;;20.13;18.23;;;22.20;92.90;;;;;;5104329;27;20200;-66
2022/08/31 02:00:16;;;;;;;20.57;18.50;;;22.30;92.90;;;;;;5120599;27;20228;-66
2022/08/31 02:02:45;;;;;;;20.03;17.83;;;22.30;92.90;;;;;;5106627;28;20212;-66
2022/08/31 02:05:13;;;;;;;21.00;18.80;;;22.30;92.90;;;;;;5102536;27;20197;-66
2022/08/31 02:07:43;;;;;;;20.27;17.23;;;22.30;92.90;;;;;;5100253;27;20599;-67
2022/08/31 02:10:11;;;;;;;19.90;17.77;;;22.30;92.90;;;;;;5099421;28;20208;-67
2022/08/31 02:12:39;;;;;;;19.23;17.10;;;22.30;93.00;;;;;;5103105;27;20204;-66
2022/08/31 02:15:08;;;;;;;20.60;18.50;;;22.30;93.10;;;;;;5108798;27;20203;-66
2022/08/31 02:17:35;;;;;;;19.03;17.10;;;22.30;93.00;;;;;;5105526;27;20203;-66
2022/08/31 02:20:07;;;;;;;24.10;18.53;;;22.30;92.90;;;;;;5116491;27;20662;-66
2022/08/31 02:22:34;;;;;;;21.57;19.27;;;22.30;92.80;;;;;;5102090;27;20200;-66
2022/08/31 02:25:02;;;;;;;20.77;18.07;;;22.30;92.70;;;;;;5099085;28;20562;-66
2022/08/31 02:27:29;;;;;;;21.83;18.07;;;22.30;92.80;;;;;;5085624;27;20204;-66
2022/08/31 02:29:56;;;;;;;18.83;16.80;;;22.30;92.80;;;;;;5106312;27;20205;-66
2022/08/31 02:32:24;;;;;;;23.47;18.70;;;22.30;92.80;;;;;;5098628;27;20204;-66
2022/08/31 02:34:51;;;;;;;21.00;17.73;;;22.30;92.70;;;;;;5098637;27;20208;-66
2022/08/31 02:37:18;;;;;;;20.00;17.90;;;22.20;92.60;;;;;;5101948;28;20244;-66
2022/08/31 02:39:47;;;;;;;21.03;18.97;;;22.20;92.60;;;;;;5106796;27;20303;-66
2022/08/31 02:42:17;;;;;;;20.90;17.70;;;22.20;92.70;;;;;;5106512;27;20566;-66
2022/08/31 02:44:45;;;;;;;19.87;17.83;;;22.20;92.70;;;;;;5102131;27;20229;-66
2022/08/31 02:47:12;;;;;;;22.10;19.07;;;22.20;92.70;;;;;;5115847;27;20209;-66
2022/08/31 02:49:57;;;;;;;22.87;20.30;;;22.20;92.80;;;;;;5101705;27;20205;-66
2022/08/31 02:52:26;;;;;;;26.27;20.63;;;22.30;92.80;;;;;;5100129;28;20315;-66
2022/08/31 02:54:53;;;;;;;22.70;20.23;;;22.20;92.70;;;;;;5103032;28;20208;-66
2022/08/31 02:57:20;;;;;;;23.67;20.90;;;22.20;92.70;;;;;;5113636;27;20205;-66
2022/08/31 02:59:48;;;;;;;23.67;21.13;;;22.30;92.70;;;;;;5102766;27;20224;-66
2022/08/31 03:02:17;;;;;;;24.33;21.73;;;22.20;92.60;;;;;;5104084;27;20298;-66
2022/08/31 03:04:44;;;;;;;30.93;23.27;;;22.20;92.60;;;;;;5104543;27;20233;-66
2022/08/31 03:07:14;;;;;;;26.00;23.23;;;22.20;92.60;;;;;;5108376;27;20245;-66
2022/08/31 03:09:43;;;;;;;26.07;23.27;;;22.10;92.60;;;;;;5102376;27;20299;-66
2022/08/31 03:12:11;;;;;;;29.83;24.00;;;22.10;92.70;;;;;;5093777;27;20220;-66
2022/08/31 03:14:38;;;;;;;25.87;23.17;;;22.10;92.80;;;;;;5097289;28;20218;-66
2022/08/31 03:17:06;;;;;;;25.77;22.97;;;22.00;92.90;;;;;;5097961;28;20260;-66
2022/08/31 03:19:34;;;;;;;24.17;21.50;;;22.00;93.00;;;;;;5083701;28;20281;-66
2022/08/31 03:22:02;;;;;;;25.87;22.37;;;22.00;93.00;;;;;;5101846;27;20228;-66
2022/08/31 03:24:30;;;;;;;32.90;23.57;;;22.00;93.10;;;;;;5104371;27;20197;-66
2022/08/31 03:26:58;;;;;;;25.10;21.13;;;22.00;93.10;;;;;;5104195;28;20208;-66
2022/08/31 03:29:25;;;;;;;24.93;22.27;;;22.00;93.10;;;;;;5088475;27;20235;-66
2022/08/31 03:31:54;;;;;;;27.63;21.10;;;22.00;93.10;;;;;;5118643;27;20629;-66
2022/08/31 03:34:23;;;;;;;23.53;20.90;;;22.00;93.10;;;;;;5100507;27;20769;-66
2022/08/31 03:36:50;;;;;;;25.20;22.30;;;22.00;93.10;;;;;;5110382;28;20539;-66
2022/08/31 03:39:19;;;;;;;24.73;21.57;;;22.00;93.10;;;;;;5093925;28;20232;-66
2022/08/31 03:41:46;;;;;;;23.03;20.73;;;22.00;93.10;;;;;;5100528;27;20681;-66
2022/08/31 03:44:14;;;;;;;25.17;22.53;;;22.00;93.20;;;;;;5088341;27;20218;-66
2022/08/31 03:46:44;;;;;;;24.20;21.70;;;22.00;93.10;;;;;;5104405;27;20233;-66
2022/08/31 03:49:12;;;;;;;24.27;21.83;;;22.00;93.10;;;;;;5122050;27;20207;-66
2022/08/31 03:51:48;;;;;;;22.40;20.00;;;22.00;93.10;;;;;;5107763;28;20312;-66
2022/08/31 03:54:18;;;;;;;22.50;19.33;;;22.00;93.10;;;;;;5100523;28;20227;-66
2022/08/31 03:56:45;;;;;;;24.37;20.97;;;22.00;93.10;;;;;;5096350;27;20231;-66
2022/08/31 03:59:13;;;;;;;29.50;22.23;;;22.00;93.10;;;;;;5102743;27;20203;-66
2022/08/31 04:02:01;;;;;;;23.60;21.07;;;22.00;93.10;;;;;;5117784;27;20697;-66
2022/08/31 04:05:07;;;;;;;23.10;20.37;;;22.00;93.10;;;;;;5030496;28;20231;-66
2022/08/31 04:07:53;;;;;;;20.70;18.50;;;22.00;93.10;;;;;;5030787;28;20771;-66
2022/08/31 04:10:40;;;;;;;22.00;19.43;;;22.00;93.10;;;;;;5092390;27;20353;-66
2022/08/31 04:13:25;;;;;;;25.17;20.20;;;21.90;93.10;;;;;;5115407;27;20525;-66
2022/08/31 04:16:25;;;;;;;22.70;20.30;;;21.90;93.20;;;;;;5022407;28;20383;-66
2022/08/31 04:18:59;;;;;;;26.43;21.93;;;21.90;93.10;;;;;;5112658;28;20225;-66
2022/08/31 04:21:32;;;;;;;23.87;21.33;;;21.90;93.10;;;;;;5094910;28;20665;-66
2022/08/31 04:24:00;;;;;;;21.40;19.20;;;21.90;93.10;;;;;;5097700;28;20199;-66
2022/08/31 04:26:32;;;;;;;22.20;19.90;;;21.90;93.10;;;;;;5101492;27;20201;-66
2022/08/31 04:29:00;;;;;;;24.77;21.63;;;21.90;93.20;;;;;;5111855;27;20281;-66
2022/08/31 04:31:28;;;;;;;28.13;21.80;;;21.90;93.20;;;;;;5087804;28;20660;-66
2022/08/31 04:33:56;;;;;;;23.90;21.57;;;21.90;93.20;;;;;;5094748;28;20204;-66
2022/08/31 04:36:26;;;;;;;21.10;18.73;;;21.80;93.10;;;;;;5091859;27;20287;-66
2022/08/31 04:38:56;;;;;;;20.77;16.93;;;21.80;93.10;;;;;;5086410;27;20216;-66
2022/08/31 04:41:25;;;;;;;17.93;15.30;;;21.80;92.90;;;;;;5121804;27;20252;-66
2022/08/31 04:43:56;;;;;;;17.63;15.57;;;21.80;93.30;;;;;;5102246;27;20688;-66
2022/08/31 04:46:25;;;;;;;15.40;13.80;;;21.80;93.00;;;;;;5096752;27;20205;-66
2022/08/31 04:48:54;;;;;;;16.23;13.20;;;21.80;93.00;;;;;;5103800;27;20205;-66
2022/08/31 04:51:28;;;;;;;16.40;13.73;;;21.80;93.00;;;;;;5119525;27;20211;-66
2022/08/31 04:53:55;;;;;;;15.83;13.73;;;21.80;93.00;;;;;;5108080;27;20206;-66
2022/08/31 04:56:26;;;;;;;16.40;14.60;;;21.80;93.00;;;;;;5102070;27;20212;-66
2022/08/31 04:58:56;;;;;;;16.43;13.80;;;21.90;93.00;;;;;;5108054;27;20268;-66
2022/08/31 05:01:29;;;;;;;17.07;13.93;;;21.90;92.90;;;;;;5099326;27;20228;-66
2022/08/31 05:04:15;;;;;;;17.50;14.40;;;21.90;92.90;;;;;;5112107;27;20196;-66
2022/08/31 05:06:44;;;;;;;17.90;14.80;;;21.90;92.90;;;;;;5126614;27;20585;-66
2022/08/31 05:09:16;;;;;;;18.27;14.57;;;22.00;93.00;;;;;;5126931;27;20298;-66
2022/08/31 05:11:46;;;;;;;16.63;14.83;;;22.00;93.10;;;;;;5108383;27;20216;-66
2022/08/31 05:14:13;;;;;;;14.97;13.47;;;22.00;93.10;;;;;;5106393;27;20554;-66
2022/08/31 05:16:44;;;;;;;16.27;12.50;;;22.10;93.20;;;;;;5104910;28;20582;-66
2022/08/31 05:19:11;;;;;;;14.20;12.70;;;22.10;93.00;;;;;;5105666;27;20232;-66
2022/08/31 05:21:41;;;;;;;12.80;11.07;;;22.20;92.90;;;;;;5108903;27;20744;-66
2022/08/31 05:24:15;;;;;;;11.80;9.90;;;22.20;92.80;;;;;;5086774;27;20502;-66
2022/08/31 05:26:48;;;;;;;10.43;9.37;;;22.20;92.60;;;;;;5098726;28;20648;-66
2022/08/31 05:29:20;;;;;;;10.83;8.13;;;22.20;92.50;;;;;;5080422;27;20556;-66
2022/08/31 05:31:50;;;;;;;9.03;8.13;;;22.20;92.50;;;;;;5100337;27;20672;-66
2022/08/31 05:34:20;;;;;;;10.97;8.00;;;22.20;92.40;;;;;;5105417;28;20208;-66
2022/08/31 05:36:55;;;;;;;8.87;7.97;;;22.30;92.40;;;;;;5109541;27;20294;-66
2022/08/31 05:39:24;;;;;;;7.00;6.37;;;22.30;92.40;;;;;;5102182;27;20231;-67
2022/08/31 05:41:53;;;;;;;8.47;5.43;;;22.40;92.40;;;;;;5106135;27;20230;-66
2022/08/31 05:44:20;;;;;;;8.30;6.13;;;22.50;91.80;;;;;;5115034;27;20601;-66
2022/08/31 05:46:49;;;;;;;6.77;6.27;;;22.50;91.60;;;;;;5099877;28;20634;-66
2022/08/31 05:49:27;;;;;;;9.07;6.07;;;22.50;91.80;;;;;;5100236;27;20515;-66
2022/08/31 05:51:55;;;;;;;6.63;5.97;;;22.60;91.80;;;;;;5094202;28;20214;-67
2022/08/31 05:54:23;;;;;;;7.30;5.87;;;22.60;91.80;;;;;;5099206;28;20262;-67
2022/08/31 05:56:50;;;;;;;6.10;5.07;;;22.60;91.80;;;;;;5096873;27;20205;-67
2022/08/31 05:59:18;;;;;;;4.50;4.20;;;22.60;91.70;;;;;;5108932;27;20208;-67
2022/08/31 06:01:45;;;;;;;4.57;4.10;;;22.60;91.70;;;;;;5106086;27;20702;-67
2022/08/31 06:04:12;;;;;;;4.80;3.57;;;22.70;91.60;;;;;;5123275;27;20236;-66
2022/08/31 06:06:41;;;;;;;3.87;3.57;;;22.70;91.50;;;;;;5109732;27;20204;-67
2022/08/31 06:09:11;;;;;;;4.40;3.40;;;22.80;91.40;;;;;;5100032;28;20197;-67
2022/08/31 06:11:40;;;;;;;3.97;3.63;;;22.80;91.30;;;;;;5089861;27;20203;-67
2022/08/31 06:14:12;;;;;;;3.50;3.20;;;22.90;91.20;;;;;;5101244;27;20209;-67
2022/08/31 06:16:43;;;;;;;5.80;3.83;;;23.00;90.90;;;;;;5105874;27;20736;-66
2022/08/31 06:19:12;;;;;;;3.30;3.00;;;23.10;90.70;;;;;;5094582;27;20242;-67
2022/08/31 06:21:49;;;;;;;3.53;2.87;;;23.20;90.10;;;;;;5104399;27;20295;-67
2022/08/31 06:24:22;;;;;;;3.40;3.00;;;23.30;89.10;;;;;;5097516;27;20207;-67
2022/08/31 06:26:54;;;;;;;2.90;2.43;;;23.40;88.60;;;;;;5099770;27;20567;-67
2022/08/31 06:29:30;;;;;;;3.50;3.20;;;23.50;88.00;;;;;;5084237;27;20212;-67
2022/08/31 06:31:59;;;;;;;4.93;2.90;;;23.60;87.60;;;;;;5103438;27;20214;-67
2022/08/31 06:34:28;;;;;;;3.53;2.90;;;23.70;85.50;;;;;;5094814;28;20227;-67
2022/08/31 06:36:57;;;;;;;3.27;2.90;;;23.70;85.50;;;;;;5097364;27;20665;-67
2022/08/31 06:39:43;;;;;;;5.40;3.23;;;23.70;85.80;;;;;;5091665;28;20641;-67
2022/08/31 06:42:33;;;;;;;3.47;3.00;;;23.80;84.70;;;;;;5105318;27;20774;-67
2022/08/31 06:45:26;;;;;;;3.97;3.50;;;23.80;85.20;;;;;;5100446;27;20309;-67
2022/08/31 06:48:23;;;;;;;3.77;3.30;;;23.80;84.60;;;;;;5071045;27;20212;-67
2022/08/31 06:50:57;;;;;;;3.97;3.10;;;23.90;85.10;;;;;;5101571;27;20227;-67
2022/08/31 06:53:25;;;;;;;4.23;3.37;;;24.00;84.50;;;;;;5085526;27;20239;-67
2022/08/31 06:56:20;;;;;;;3.80;3.13;;;24.00;84.00;;;;;;5097816;27;20209;-67
2022/08/31 06:59:17;;;;;;;3.40;3.10;;;24.00;84.00;;;;;;5042277;27;20229;-67
2022/08/31 07:01:49;;;;;;;3.93;3.53;;;24.10;84.30;;;;;;5114662;27;20242;-68
2022/08/31 07:04:19;;;;;;;4.53;3.80;;;24.20;84.20;;;;;;5100378;28;20212;-68
2022/08/31 07:06:46;;;;;;;3.70;3.40;;;24.30;83.70;;;;;;5086312;28;20208;-68
2022/08/31 07:09:16;;;;;;;3.30;3.00;;;24.40;83.40;;;;;;5104725;27;20511;-68
2022/08/31 07:11:46;;;;;;;3.43;3.13;;;24.50;82.30;;;;;;5078243;27;20300;-68
2022/08/31 07:14:21;;;;;;;3.17;2.87;;;24.50;81.70;;;;;;5104607;27;20698;-68
2022/08/31 07:16:52;;;;;;;4.50;3.17;;;24.50;81.60;;;;;;5093442;28;20221;-68
2022/08/31 07:19:20;;;;;;;3.40;3.10;;;24.50;81.70;;;;;;5115314;27;20275;-68
2022/08/31 07:21:51;;;;;;;4.97;3.00;;;24.60;81.60;;;;;;5102118;27;20675;-68
2022/08/31 07:24:28;;;;;;;3.63;3.27;;;24.60;82.30;;;;;;5100254;28;20209;-69
2022/08/31 07:27:01;;;;;;;3.37;3.10;;;24.60;80.90;;;;;;5102148;27;20335;-67
2022/08/31 07:29:39;;;;;;;3.80;3.40;;;24.70;81.50;;;;;;5085913;27;20512;-67
2022/08/31 07:32:13;;;;;;;4.07;3.33;;;24.70;81.50;;;;;;5084628;27;20204;-67
2022/08/31 07:34:42;;;;;;;3.67;3.33;;;24.80;81.40;;;;;;5098454;28;20266;-67
2022/08/31 07:43:16;;;;;;;4.47;3.30;;;24.90;81.20;;;;;;5092903;27;20656;-67
2022/08/31 07:45:44;;;;;;;3.67;3.37;;;25.00;80.50;;;;;;5086582;28;20225;-67
2022/08/31 07:48:17;;;;;;;3.93;3.37;;;25.10;80.40;;;;;;5101567;27;20536;-67
2022/08/31 07:50:56;;;;;;;2.90;2.70;;;25.20;80.70;;;;;;5105820;27;20268;-67
2022/08/31 07:53:46;;;;;;;3.70;3.30;;;25.40;80.90;;;;;;5120555;27;20216;-67
2022/08/31 07:56:37;;;;;;;3.80;3.40;;;25.60;81.20;;;;;;5101305;27;20267;-67
2022/08/31 07:59:09;;;;;;;4.20;3.37;;;25.90;80.30;;;;;;5109981;27;20528;-67
2022/08/31 08:01:40;;;;;;;3.77;3.37;;;26.10;78.80;;;;;;5096266;28;20242;-68
2022/08/31 08:04:08;;;;;;;3.87;3.57;;;26.30;77.70;;;;;;5101863;27;20204;-69
2022/08/31 08:06:56;;;;;;;7.90;4.00;;;26.40;76.30;;;;;;5121343;27;20219;-68
2022/08/31 08:09:44;;;;;;;4.07;3.77;;;26.40;75.50;;;;;;5112984;27;20303;-67
2022/08/31 08:12:47;;;;;;;4.70;4.30;;;26.20;75.40;;;;;;5117244;27;20695;-67
2022/08/31 08:15:49;;;;;;;21.17;10.97;;;26.10;76.40;;;;;;5068182;28;20309;-69
2022/08/31 08:18:18;;;;;;;4.70;4.23;;;26.20;77.50;;;;;;5118530;28;20236;-67
2022/08/31 08:20:51;;;;;;;4.70;4.30;;;26.20;76.00;;;;;;5090178;28;20224;-67
2022/08/31 08:23:18;;;;;;;5.40;4.73;;;26.20;75.90;;;;;;5101199;28;20327;-68
2022/08/31 08:26:13;;;;;;;5.67;5.17;;;26.30;76.40;;;;;;5099145;28;20349;-68
2022/08/31 08:29:26;;;;;;;8.30;6.43;;;26.30;74.90;;;;;;5021702;28;20234;-67
2022/08/31 08:31:55;;;;;;;6.67;5.40;;;26.20;75.60;;;;;;5007986;28;20266;-67
2022/08/31 08:34:24;;;;;;;7.67;5.70;;;26.10;76.40;;;;;;5041429;28;20208;-67
2022/08/31 08:36:59;;;;;;;9.57;7.43;;;25.90;76.50;;;;;;5103275;28;20218;-67
2022/08/31 08:39:26;;;;;;;12.70;6.33;;;25.90;77.00;;;;;;5085705;28;20200;-68
2022/08/31 08:42:09;;;;;;;8.07;5.70;;;25.90;77.20;;;;;;5099551;28;20704;-67
2022/08/31 08:44:37;;;;;;;5.53;5.03;;;25.80;77.30;;;;;;5097851;28;20580;-67
2022/08/31 08:47:13;;;;;;;5.03;4.63;;;25.90;77.70;;;;;;5094951;28;20205;-67
2022/08/31 08:49:51;;;;;;;4.70;4.30;;;25.90;77.30;;;;;;5062101;28;20350;-68
2022/08/31 08:52:28;;;;;;;4.77;4.30;;;25.90;76.80;;;;;;5097841;28;20570;-67
2022/08/31 08:55:00;;;;;;;5.77;4.10;;;25.80;77.30;;;;;;5103733;28;20223;-67
2022/08/31 08:57:34;;;;;;;4.67;4.20;;;25.80;77.60;;;;;;5117182;28;20254;-68
2022/08/31 09:00:14;;;;;;;6.17;5.07;;;25.70;78.30;;;;;;5098403;28;20205;-68
2022/08/31 09:02:59;;;;;;;5.83;5.23;;;25.60;78.50;;;;;;5103661;28;20239;-68
2022/08/31 09:06:07;;;;;;;5.73;5.10;;;25.50;79.20;;;;;;5095305;28;20203;-68
2022/08/31 09:09:07;;;;;;;8.27;6.30;;;25.40;79.40;;;;;;5096747;28;20303;-67
2022/08/31 09:12:07;;;;;;;7.37;5.63;;;25.40;79.70;;;;;;5087395;28;20634;-67
2022/08/31 09:15:02;;;;;;;6.73;5.77;;;25.40;79.20;;;;;;5102307;27;20218;-67
2022/08/31 09:17:57;;;;;;;7.43;5.60;;;25.50;79.30;;;;;;5082718;27;20229;-68
2022/08/31 09:20:27;;;;;;;6.93;5.20;;;25.60;79.90;;;;;;5083915;28;20300;-68
2022/08/31 09:22:57;;;;;;;6.37;5.77;;;25.60;79.10;;;;;;5078622;28;20419;-68
2022/08/31 09:25:37;;;;;;;6.07;5.57;;;25.60;79.40;;;;;;5081800;28;20217;-70
2022/08/31 09:28:46;;;;;;;6.03;5.50;;;25.60;78.90;;;;;;5081834;28;20221;-68
2022/08/31 09:31:37;;;;;;;8.13;5.30;;;25.60;79.10;;;;;;5073534;28;20675;-68
2022/08/31 09:34:24;;;;;;;10.17;5.70;;;25.60;79.00;;;;;;5074032;28;20297;-68
2022/08/31 09:37:00;;;;;;;5.77;5.07;;;25.60;79.80;;;;;;5082385;28;20212;-68
2022/08/31 09:39:31;;;;;;;6.47;5.60;;;25.60;80.00;;;;;;5081139;28;20206;-68
2022/08/31 09:42:29;;;;;;;8.70;5.67;;;25.60;79.30;;;;;;5075678;28;20221;-67
2022/08/31 09:45:01;;;;;;;6.73;5.63;;;25.60;79.80;;;;;;5080590;28;20209;-68
2022/08/31 09:47:54;;;;;;;5.97;5.37;;;25.60;79.90;;;;;;5078341;28;20527;-69
2022/08/31 09:50:36;;;;;;;8.60;6.37;;;25.60;80.40;;;;;;5078646;28;20316;-68
2022/08/31 09:56:15;;;;;;;7.10;5.30;;;25.90;79.40;;;;;;5061852;28;20207;-68
2022/08/31 09:59:01;;;;;;;8.97;6.63;;;26.10;79.60;;;;;;5077960;28;20220;-68
2022/08/31 10:01:38;;;;;;;7.00;6.40;;;26.10;79.10;;;;;;5079675;28;20298;-68
2022/08/31 10:04:21;;;;;;;9.67;5.43;;;26.20;78.60;;;;;;5083039;28;20206;-69
2022/08/31 10:07:10;;;;;;;11.37;6.73;;;26.30;78.50;;;;;;5082491;28;20221;-68
2022/08/31 10:09:47;;;;;;;6.83;6.20;;;26.40;78.60;;;;;;5083083;28;20207;-68
2022/08/31 10:12:21;;;;;;;11.93;6.53;;;26.50;78.90;;;;;;5077703;28;20209;-69
2022/08/31 10:15:01;;;;;;;8.17;6.20;;;26.60;78.30;;;;;;5075653;28;20279;-68
2022/08/31 10:17:36;;;;;;;8.63;6.90;;;26.70;77.80;;;;;;5075857;28;20205;-68
2022/08/31 10:20:18;;;;;;;8.03;6.00;;;26.90;76.80;;;;;;5112655;27;20641;-67
2022/08/31 10:22:50;;;;;;;8.07;5.53;;;27.10;76.30;;;;;;5101829;28;20224;-68
2022/08/31 10:25:20;;;;;;;11.13;6.40;;;27.40;75.30;;;;;;5117680;27;20211;-68
2022/08/31 10:27:56;;;;;;;6.73;6.03;;;27.70;75.00;;;;;;5122510;27;20188;-68
2022/08/31 10:30:37;;;;;;;11.07;5.33;;;27.90;73.50;;;;;;5120654;27;20197;-69
2022/08/31 10:33:13;;;;;;;6.20;5.67;;;28.10;72.60;;;;;;5122080;27;20203;-68
2022/08/31 10:35:50;;;;;;;6.30;5.80;;;28.30;72.30;;;;;;5107105;27;20218;-69
2022/08/31 10:38:36;;;;;;;7.60;6.13;;;28.40;72.00;;;;;;5109551;27;20204;-68
2022/08/31 10:41:15;;;;;;;9.40;7.47;;;28.50;71.20;;;;;;5115478;27;20230;-68
2022/08/31 10:43:52;;;;;;;6.80;5.77;;;28.60;69.90;;;;;;5118954;27;20305;-69
2022/08/31 10:46:19;;;;;;;7.57;6.43;;;28.60;69.90;;;;;;5102537;27;20202;-68
2022/08/31 10:48:53;;;;;;;7.60;6.23;;;28.60;69.70;;;;;;5121806;27;20585;-68
2022/08/31 10:51:35;;;;;;;6.97;6.30;;;28.50;69.50;;;;;;5106388;28;20212;-69
2022/08/31 10:54:27;;;;;;;8.63;6.67;;;28.30;69.50;;;;;;5118152;27;20210;-68
2022/08/31 10:57:13;;;;;;;6.70;6.00;;;28.10;70.20;;;;;;5097436;27;20197;-67
2022/08/31 11:00:00;;;;;;;6.77;5.97;;;27.90;71.10;;;;;;5093182;28;20270;-68
2022/08/31 11:03:01;;;;;;;7.10;5.70;;;27.90;71.50;;;;;;5094087;27;20630;-68
2022/08/31 11:05:56;;;;;;;6.07;5.40;;;28.20;71.30;;;;;;5100763;28;20601;-68
2022/08/31 11:08:39;;;;;;;11.30;6.27;;;28.70;70.70;;;;;;5090423;27;20678;-68
2022/08/31 11:11:14;;;;;;;6.30;5.70;;;29.10;70.40;;;;;;5114238;27;20192;-68
2022/08/31 11:13:46;;;;;;;8.33;6.00;;;29.40;69.30;;;;;;5102472;27;20207;-68
2022/08/31 11:16:25;;;;;;;7.73;5.33;;;29.60;67.00;;;;;;5122085;27;20569;-69
2022/08/31 11:19:06;;;;;;;6.57;5.90;;;29.50;66.70;;;;;;5100575;27;20724;-68
2022/08/31 11:21:53;;;;;;;6.10;5.60;;;29.30;64.80;;;;;;5094238;28;20192;-68
2022/08/31 11:24:29;;;;;;;5.83;5.20;;;29.20;66.00;;;;;;5115458;27;20603;-68
2022/08/31 11:27:10;;;;;;;9.43;5.67;;;29.20;67.50;;;;;;5122023;27;20211;-68
2022/08/31 11:29:56;;;;;;;6.83;5.13;;;29.40;67.70;;;;;;5101069;28;20509;-69
2022/08/31 11:32:33;;;;;;;6.23;5.47;;;29.60;66.60;;;;;;5118475;27;20210;-69
2022/08/31 11:35:07;;;;;;;7.47;4.97;;;29.80;65.80;;;;;;5117897;27;20630;-69
2022/08/31 11:37:53;;;;;;;9.30;5.10;;;30.00;65.40;;;;;;5098856;28;20219;-70
2022/08/31 11:40:40;;;;;;;5.80;5.20;;;30.20;65.60;;;;;;5118195;27;20609;-69
2022/08/31 11:43:30;;;;;;;6.90;5.83;;;30.40;64.10;;;;;;5116863;27;20220;-69
2022/08/31 11:46:18;;;;;;;5.87;4.93;;;30.40;62.90;;;;;;5108442;27;20200;-69
2022/08/31 11:48:54;;;;;;;4.90;4.50;;;30.30;63.00;;;;;;5095686;28;20204;-69
2022/08/31 11:51:45;;;;;;;5.20;4.70;;;30.00;63.70;;;;;;5123701;27;20223;-69
2022/08/31 11:54:40;;;;;;;7.03;5.33;;;29.80;64.50;;;;;;5110614;27;20222;-69
2022/08/31 11:57:16;;;;;;;5.93;4.90;;;29.70;64.70;;;;;;5102575;28;20537;-70
2022/08/31 11:59:45;;;;;;;6.63;4.43;;;29.80;64.90;;;;;;5120879;27;20278;-70
2022/08/31 12:02:18;;;;;;;7.87;4.97;;;29.80;64.50;;;;;;5107599;27;20202;-70
2022/08/31 12:04:52;;;;;;;7.50;5.00;;;29.70;63.90;;;;;;5117538;27;20219;-70
2022/08/31 12:07:23;;;;;;;4.83;4.30;;;29.60;63.90;;;;;;5118055;27;20346;-69
2022/08/31 12:10:05;;;;;;;4.87;4.43;;;29.50;63.90;;;;;;5115821;28;20261;-69
2022/08/31 12:12:55;;;;;;;4.70;4.27;;;29.50;64.30;;;;;;5111776;28;20196;-69
2022/08/31 12:15:34;;;;;;;4.90;4.40;;;29.60;65.10;;;;;;5117894;27;20508;-69
2022/08/31 12:18:11;;;;;;;5.13;4.63;;;29.90;64.90;;;;;;5116272;28;20211;-68
2022/08/31 12:23:36;;;;;;;4.47;4.13;;;30.00;63.50;;;;;;5118850;28;20211;-69
2022/08/31 12:26:35;;;;;;;5.70;4.33;;;30.00;63.70;;;;;;5109836;28;20614;-68
2022/08/31 12:29:23;;;;;;;5.27;4.53;;;29.90;62.70;;;;;;5051526;28;20204;-69
2022/08/31 12:32:25;;;;;;;4.50;4.10;;;29.70;63.00;;;;;;5108085;28;20215;-69
2022/08/31 12:35:09;;;;;;;6.97;4.13;;;29.50;64.70;;;;;;5120420;28;20843;-69
2022/08/31 12:37:37;;;;;;;5.10;3.83;;;29.40;64.40;;;;;;5114992;28;20211;-69
2022/08/31 12:40:17;;;;;;;5.23;4.20;;;29.20;64.60;;;;;;5117072;28;20218;-68
2022/08/31 12:43:04;;;;;;;4.50;4.10;;;29.10;63.50;;;;;;5114111;28;20226;-68
2022/08/31 12:45:41;;;;;;;6.10;4.07;;;29.00;63.80;;;;;;5084915;28;20212;-69
2022/08/31 12:48:35;;;;;;;5.87;3.97;;;28.90;64.30;;;;;;5118960;27;20215;-68
2022/08/31 12:51:17;;;;;;;6.07;4.30;;;28.90;64.90;;;;;;5113692;27;20211;-68
2022/08/31 12:53:44;;;;;;;5.83;4.50;;;29.00;64.80;;;;;;5114691;27;20197;-69
2022/08/31 12:56:34;;;;;;;7.17;4.57;;;29.20;64.30;;;;;;5102355;27;20217;-69
2022/08/31 12:59:39;;;;;;;4.37;3.97;;;29.50;62.70;;;;;;5122631;27;20212;-68
2022/08/31 13:02:27;;;;;;;4.77;4.30;;;29.70;63.10;;;;;;5124019;27;20201;-68
2022/08/31 13:04:56;;;;;;;5.13;4.63;;;29.90;62.80;;;;;;5121978;27;20286;-68
2022/08/31 13:07:33;;;;;;;6.30;3.60;;;30.10;63.00;;;;;;5123971;27;20203;-68
2022/08/31 13:10:06;;;;;;;5.03;4.33;;;30.20;62.90;;;;;;5105322;27;20211;-68
2022/08/31 13:12:33;;;;;;;3.83;3.53;;;30.30;62.80;;;;;;5117185;27;20648;-68
2022/08/31 13:15:00;;;;;;;9.70;4.70;;;30.40;63.10;;;;;;5123385;27;20264;-68
2022/08/31 13:17:34;;;;;;;4.80;4.00;;;30.60;62.60;;;;;;5119381;27;20634;-68
2022/08/31 13:20:02;;;;;;;4.73;3.97;;;30.80;62.10;;;;;;5114351;27;20249;-68
2022/08/31 13:22:38;;;;;;;4.00;3.63;;;30.90;60.50;;;;;;5105703;27;20282;-68
2022/08/31 13:25:24;;;;;;;4.43;3.80;;;30.90;60.00;;;;;;5123278;27;20200;-67
2022/08/31 13:27:51;;;;;;;3.97;3.67;;;30.90;60.10;;;;;;5122662;27;20191;-68
2022/08/31 13:30:22;;;;;;;4.63;4.23;;;30.70;60.20;;;;;;5121268;27;20208;-68
2022/08/31 13:32:53;;;;;;;3.80;3.50;;;30.60;60.90;;;;;;5117805;27;20784;-68
2022/08/31 13:35:24;;;;;;;5.13;3.90;;;30.40;61.50;;;;;;5114935;27;20213;-68